sensor_id;sensor_type;location;lat;lon;timestamp;temperature;humidity
16243;DHT22;11719;51.052;6.982;2023-11-19T00:00:43;16.10;99.90
16243;DHT22;11719;51.052;6.982;2023-11-19T00:03:08;16.30;99.90
16243;DHT22;11719;51.052;6.982;2023-11-19T00:05:36;16.30;99.90
16243;DHT22;11719;51.052;6.982;2023-11-19T00:08:02;16.40;99.90
16243;DHT22;11719;51.052;6.982;2023-11-19T00:10:27;16.50;99.90
16243;DHT22;11719;51.052;6.982;2023-11-19T00:12:54;16.60;99.90
16243;DHT22;11719;51.052;6.982;2023-11-19T00:15:22;16.70;99.90
16243;DHT22;11719;51.052;6.982;2023-11-19T00:17:49;16.70;99.90
16243;DHT22;11719;51.052;6.982;2023-11-19T00:20:19;16.70;99.90
16243;DHT22;11719;51.052;6.982;2023-11-19T00:22:48;16.70;99.90
16243;DHT22;11719;51.052;6.982;2023-11-19T00:25:19;16.70;99.90
16243;DHT22;11719;51.052;6.982;2023-11-19T00:27:47;16.80;99.90
16243;DHT22;11719;51.052;6.982;2023-11-19T00:30:13;16.80;99.90
16243;DHT22;11719;51.052;6.982;2023-11-19T00:32:40;16.70;99.90
16243;DHT22;11719;51.052;6.982;2023-11-19T00:35:07;16.60;99.90
16243;DHT22;11719;51.052;6.982;2023-11-19T00:37:35;16.40;99.90
16243;DHT22;11719;51.052;6.982;2023-11-19T00:40:01;16.50;99.90
16243;DHT22;11719;51.052;6.982;2023-11-19T00:42:30;16.60;99.90
16243;DHT22;11719;51.052;6.982;2023-11-19T00:44:56;16.60;99.90
16243;DHT22;11719;51.052;6.982;2023-11-19T00:47:23;16.60;99.90
16243;DHT22;11719;51.052;6.982;2023-11-19T00:49:49;16.50;99.90
16243;DHT22;11719;51.052;6.982;2023-11-19T00:52:16;16.50;99.90
16243;DHT22;11719;51.052;6.982;2023-11-19T00:54:42;16.60;99.90
16243;DHT22;11719;51.052;6.982;2023-11-19T00:57:08;16.60;99.90
16243;DHT22;11719;51.052;6.982;2023-11-19T00:59:34;16.50;99.90
16243;DHT22;11719;51.052;6.982;2023-11-19T01:02:00;16.40;99.90
16243;DHT22;11719;51.052;6.982;2023-11-19T01:04:36;16.40;99.90
16243;DHT22;11719;51.052;6.982;2023-11-19T01:07:03;16.30;99.90
16243;DHT22;11719;51.052;6.982;2023-11-19T01:09:32;16.30;99.90
16243;DHT22;11719;51.052;6.982;2023-11-19T01:12:00;16.20;99.90
16243;DHT22;11719;51.052;6.982;2023-11-19T01:14:28;16.30;99.90
16243;DHT22;11719;51.052;6.982;2023-11-19T01:16:53;16.20;99.90
16243;DHT22;11719;51.052;6.982;2023-11-19T01:19:20;16.10;99.90
16243;DHT22;11719;51.052;6.982;2023-11-19T01:21:48;16.10;99.90
16243;DHT22;11719;51.052;6.982;2023-11-19T01:24:14;16.00;99.90
16243;DHT22;11719;51.052;6.982;2023-11-19T01:26:40;15.90;99.90
16243;DHT22;11719;51.052;6.982;2023-11-19T01:29:11;15.90;99.90
16243;DHT22;11719;51.052;6.982;2023-11-19T01:31:45;15.80;99.90
16243;DHT22;11719;51.052;6.982;2023-11-19T01:34:16;15.90;99.90
16243;DHT22;11719;51.052;6.982;2023-11-19T01:36:42;16.00;99.90
16243;DHT22;11719;51.052;6.982;2023-11-19T01:39:08;16.20;99.90
16243;DHT22;11719;51.052;6.982;2023-11-19T01:41:36;16.20;99.90
16243;DHT22;11719;51.052;6.982;2023-11-19T01:44:02;16.10;99.90
16243;DHT22;11719;51.052;6.982;2023-11-19T01:46:29;16.20;99.90
16243;DHT22;11719;51.052;6.982;2023-11-19T01:48:55;16.00;99.90
16243;DHT22;11719;51.052;6.982;2023-11-19T01:51:21;15.90;99.90
16243;DHT22;11719;51.052;6.982;2023-11-19T01:53:49;15.80;99.90
16243;DHT22;11719;51.052;6.982;2023-11-19T01:56:15;15.80;99.90
16243;DHT22;11719;51.052;6.982;2023-11-19T01:58:47;15.70;99.90
16243;DHT22;11719;51.052;6.982;2023-11-19T02:01:15;15.70;99.90
16243;DHT22;11719;51.052;6.982;2023-11-19T02:03:40;15.60;99.90
16243;DHT22;11719;51.052;6.982;2023-11-19T02:06:07;15.60;99.90
16243;DHT22;11719;51.052;6.982;2023-11-19T02:08:35;15.50;99.90
16243;DHT22;11719;51.052;6.982;2023-11-19T02:11:01;15.60;99.90
16243;DHT22;11719;51.052;6.982;2023-11-19T02:13:27;15.70;99.90
16243;DHT22;11719;51.052;6.982;2023-11-19T02:15:54;15.70;99.90
16243;DHT22;11719;51.052;6.982;2023-11-19T02:18:27;15.70;99.90
16243;DHT22;11719;51.052;6.982;2023-11-19T02:20:57;15.70;99.90
16243;DHT22;11719;51.052;6.982;2023-11-19T02:23:26;15.80;99.90
16243;DHT22;11719;51.052;6.982;2023-11-19T02:26:29;15.80;99.90
16243;DHT22;11719;51.052;6.982;2023-11-19T02:28:58;15.90;99.90
16243;DHT22;11719;51.052;6.982;2023-11-19T02:31:24;15.90;99.90
16243;DHT22;11719;51.052;6.982;2023-11-19T02:33:50;15.90;99.90
16243;DHT22;11719;51.052;6.982;2023-11-19T02:36:16;15.90;99.90
16243;DHT22;11719;51.052;6.982;2023-11-19T02:38:42;15.90;99.90
16243;DHT22;11719;51.052;6.982;2023-11-19T02:41:09;16.00;99.90
16243;DHT22;11719;51.052;6.982;2023-11-19T02:43:36;16.00;99.90
16243;DHT22;11719;51.052;6.982;2023-11-19T02:46:04;16.10;99.90
16243;DHT22;11719;51.052;6.982;2023-11-19T02:48:35;16.10;99.90
16243;DHT22;11719;51.052;6.982;2023-11-19T02:51:01;16.10;99.90
16243;DHT22;11719;51.052;6.982;2023-11-19T02:53:32;16.10;99.90
16243;DHT22;11719;51.052;6.982;2023-11-19T02:55:57;16.10;99.90
16243;DHT22;11719;51.052;6.982;2023-11-19T02:58:27;16.20;99.90
16243;DHT22;11719;51.052;6.982;2023-11-19T03:00:54;16.20;99.90
16243;DHT22;11719;51.052;6.982;2023-11-19T03:03:25;16.20;99.90
16243;DHT22;11719;51.052;6.982;2023-11-19T03:05:56;16.10;99.90
16243;DHT22;11719;51.052;6.982;2023-11-19T03:08:22;16.20;99.90
16243;DHT22;11719;51.052;6.982;2023-11-19T03:10:48;16.10;99.90
16243;DHT22;11719;51.052;6.982;2023-11-19T03:13:15;16.10;99.90
16243;DHT22;11719;51.052;6.982;2023-11-19T03:15:42;16.10;99.90
16243;DHT22;11719;51.052;6.982;2023-11-19T03:18:08;16.10;99.90
16243;DHT22;11719;51.052;6.982;2023-11-19T03:20:34;16.00;99.90
16243;DHT22;11719;51.052;6.982;2023-11-19T03:23:00;16.00;99.90
16243;DHT22;11719;51.052;6.982;2023-11-19T03:25:27;16.00;99.90
16243;DHT22;11719;51.052;6.982;2023-11-19T03:27:59;16.00;99.90
16243;DHT22;11719;51.052;6.982;2023-11-19T03:30:26;16.00;99.90
16243;DHT22;11719;51.052;6.982;2023-11-19T03:32:54;16.10;99.90
16243;DHT22;11719;51.052;6.982;2023-11-19T03:35:23;16.10;99.90
16243;DHT22;11719;51.052;6.982;2023-11-19T03:37:50;16.10;99.90
16243;DHT22;11719;51.052;6.982;2023-11-19T03:40:17;16.20;99.90
16243;DHT22;11719;51.052;6.982;2023-11-19T03:42:47;16.10;99.90
16243;DHT22;11719;51.052;6.982;2023-11-19T03:45:13;16.10;99.90
16243;DHT22;11719;51.052;6.982;2023-11-19T03:47:41;16.10;99.90
16243;DHT22;11719;51.052;6.982;2023-11-19T03:50:07;16.20;99.90
16243;DHT22;11719;51.052;6.982;2023-11-19T03:52:36;16.30;99.90
16243;DHT22;11719;51.052;6.982;2023-11-19T03:55:02;16.30;99.90
16243;DHT22;11719;51.052;6.982;2023-11-19T03:57:30;16.30;99.90
16243;DHT22;11719;51.052;6.982;2023-11-19T03:59:56;16.20;99.90
16243;DHT22;11719;51.052;6.982;2023-11-19T04:02:24;16.30;99.90
16243;DHT22;11719;51.052;6.982;2023-11-19T04:04:53;16.40;99.90
16243;DHT22;11719;51.052;6.982;2023-11-19T04:07:20;16.50;99.90
16243;DHT22;11719;51.052;6.982;2023-11-19T04:09:46;16.60;99.90
16243;DHT22;11719;51.052;6.982;2023-11-19T04:12:12;16.70;99.90
16243;DHT22;11719;51.052;6.982;2023-11-19T04:14:38;16.80;99.90
16243;DHT22;11719;51.052;6.982;2023-11-19T04:17:03;16.80;99.90
16243;DHT22;11719;51.052;6.982;2023-11-19T04:19:29;16.90;99.90
16243;DHT22;11719;51.052;6.982;2023-11-19T04:21:55;16.80;99.90
16243;DHT22;11719;51.052;6.982;2023-11-19T04:24:21;16.80;99.90
16243;DHT22;11719;51.052;6.982;2023-11-19T04:26:46;16.80;99.90
16243;DHT22;11719;51.052;6.982;2023-11-19T04:29:14;16.90;99.90
16243;DHT22;11719;51.052;6.982;2023-11-19T04:31:45;16.90;99.90
16243;DHT22;11719;51.052;6.982;2023-11-19T04:34:11;16.70;99.90
16243;DHT22;11719;51.052;6.982;2023-11-19T04:36:38;16.80;99.90
16243;DHT22;11719;51.052;6.982;2023-11-19T04:39:04;16.90;99.90
16243;DHT22;11719;51.052;6.982;2023-11-19T04:41:49;17.00;99.90
16243;DHT22;11719;51.052;6.982;2023-11-19T04:44:16;17.00;99.90
16243;DHT22;11719;51.052;6.982;2023-11-19T04:46:42;16.90;99.90
16243;DHT22;11719;51.052;6.982;2023-11-19T04:49:09;16.80;99.90
16243;DHT22;11719;51.052;6.982;2023-11-19T04:51:45;16.80;99.90
16243;DHT22;11719;51.052;6.982;2023-11-19T04:54:16;16.70;99.90
16243;DHT22;11719;51.052;6.982;2023-11-19T04:56:45;16.60;99.90
16243;DHT22;11719;51.052;6.982;2023-11-19T04:59:12;16.60;99.90
16243;DHT22;11719;51.052;6.982;2023-11-19T05:01:38;16.50;99.90
16243;DHT22;11719;51.052;6.982;2023-11-19T05:04:04;16.50;99.90
16243;DHT22;11719;51.052;6.982;2023-11-19T05:06:30;16.50;99.90
16243;DHT22;11719;51.052;6.982;2023-11-19T05:09:00;16.40;99.90
16243;DHT22;11719;51.052;6.982;2023-11-19T05:11:27;16.60;99.90
16243;DHT22;11719;51.052;6.982;2023-11-19T05:13:54;16.60;99.90
16243;DHT22;11719;51.052;6.982;2023-11-19T05:16:20;16.70;99.90
16243;DHT22;11719;51.052;6.982;2023-11-19T05:18:46;16.70;99.90
16243;DHT22;11719;51.052;6.982;2023-11-19T05:21:12;16.60;99.90
16243;DHT22;11719;51.052;6.982;2023-11-19T05:23:38;16.60;99.90
16243;DHT22;11719;51.052;6.982;2023-11-19T05:26:04;16.60;99.90
16243;DHT22;11719;51.052;6.982;2023-11-19T05:28:30;16.60;99.90
16243;DHT22;11719;51.052;6.982;2023-11-19T05:30:56;16.70;99.90
16243;DHT22;11719;51.052;6.982;2023-11-19T05:33:22;16.70;99.90
16243;DHT22;11719;51.052;6.982;2023-11-19T05:35:48;16.70;99.90
16243;DHT22;11719;51.052;6.982;2023-11-19T05:38:14;16.70;99.90
16243;DHT22;11719;51.052;6.982;2023-11-19T05:40:41;16.70;99.90
16243;DHT22;11719;51.052;6.982;2023-11-19T05:43:07;16.80;99.90
16243;DHT22;11719;51.052;6.982;2023-11-19T05:45:32;16.80;99.90
16243;DHT22;11719;51.052;6.982;2023-11-19T05:47:58;16.70;99.90
16243;DHT22;11719;51.052;6.982;2023-11-19T05:50:24;16.60;99.90
16243;DHT22;11719;51.052;6.982;2023-11-19T05:52:50;16.60;99.90
16243;DHT22;11719;51.052;6.982;2023-11-19T05:55:18;16.60;99.90
16243;DHT22;11719;51.052;6.982;2023-11-19T05:57:44;16.60;99.90
16243;DHT22;11719;51.052;6.982;2023-11-19T06:00:11;16.60;99.90
16243;DHT22;11719;51.052;6.982;2023-11-19T06:02:38;16.50;99.90
16243;DHT22;11719;51.052;6.982;2023-11-19T06:05:05;16.50;99.90
16243;DHT22;11719;51.052;6.982;2023-11-19T06:07:32;16.40;99.90
16243;DHT22;11719;51.052;6.982;2023-11-19T06:09:58;16.40;99.90
16243;DHT22;11719;51.052;6.982;2023-11-19T06:12:24;16.20;99.90
16243;DHT22;11719;51.052;6.982;2023-11-19T06:14:50;16.10;99.90
16243;DHT22;11719;51.052;6.982;2023-11-19T06:17:16;16.00;99.90
16243;DHT22;11719;51.052;6.982;2023-11-19T06:19:41;16.10;99.90
16243;DHT22;11719;51.052;6.982;2023-11-19T06:22:07;16.20;99.90
16243;DHT22;11719;51.052;6.982;2023-11-19T06:24:33;16.10;99.90
16243;DHT22;11719;51.052;6.982;2023-11-19T06:26:59;16.20;99.90
16243;DHT22;11719;51.052;6.982;2023-11-19T06:29:24;16.10;99.90
16243;DHT22;11719;51.052;6.982;2023-11-19T06:31:50;16.20;99.90
16243;DHT22;11719;51.052;6.982;2023-11-19T06:34:16;16.10;99.90
16243;DHT22;11719;51.052;6.982;2023-11-19T06:36:42;16.10;99.90
16243;DHT22;11719;51.052;6.982;2023-11-19T06:39:09;15.90;99.90
16243;DHT22;11719;51.052;6.982;2023-11-19T06:41:36;16.00;99.90
16243;DHT22;11719;51.052;6.982;2023-11-19T06:44:04;15.90;99.90
16243;DHT22;11719;51.052;6.982;2023-11-19T06:46:30;16.00;99.90
16243;DHT22;11719;51.052;6.982;2023-11-19T06:48:57;15.90;99.90
16243;DHT22;11719;51.052;6.982;2023-11-19T06:51:22;16.00;99.90
16243;DHT22;11719;51.052;6.982;2023-11-19T06:53:50;16.00;99.90
16243;DHT22;11719;51.052;6.982;2023-11-19T06:56:20;15.80;99.90
16243;DHT22;11719;51.052;6.982;2023-11-19T06:58:47;15.80;99.90
16243;DHT22;11719;51.052;6.982;2023-11-19T07:01:17;15.90;99.90
16243;DHT22;11719;51.052;6.982;2023-11-19T07:03:45;15.90;99.90
16243;DHT22;11719;51.052;6.982;2023-11-19T07:06:12;16.10;99.90
16243;DHT22;11719;51.052;6.982;2023-11-19T07:08:39;15.90;99.90
16243;DHT22;11719;51.052;6.982;2023-11-19T07:11:06;16.10;99.90
16243;DHT22;11719;51.052;6.982;2023-11-19T07:13:32;16.20;99.90
16243;DHT22;11719;51.052;6.982;2023-11-19T07:15:58;16.20;99.90
16243;DHT22;11719;51.052;6.982;2023-11-19T07:18:24;16.20;99.90
16243;DHT22;11719;51.052;6.982;2023-11-19T07:20:50;16.20;99.90
16243;DHT22;11719;51.052;6.982;2023-11-19T07:23:16;16.20;99.90
16243;DHT22;11719;51.052;6.982;2023-11-19T07:25:43;16.20;99.90
16243;DHT22;11719;51.052;6.982;2023-11-19T07:28:12;16.20;99.90
16243;DHT22;11719;51.052;6.982;2023-11-19T07:30:38;16.10;99.90
16243;DHT22;11719;51.052;6.982;2023-11-19T07:33:05;16.20;99.90
16243;DHT22;11719;51.052;6.982;2023-11-19T07:35:31;16.20;99.90
16243;DHT22;11719;51.052;6.982;2023-11-19T07:37:58;16.30;99.90
16243;DHT22;11719;51.052;6.982;2023-11-19T07:40:24;16.40;99.90
16243;DHT22;11719;51.052;6.982;2023-11-19T07:42:50;16.40;99.90
16243;DHT22;11719;51.052;6.982;2023-11-19T07:45:17;16.40;99.90
16243;DHT22;11719;51.052;6.982;2023-11-19T07:47:43;16.40;99.90
16243;DHT22;11719;51.052;6.982;2023-11-19T07:50:12;16.30;99.90
16243;DHT22;11719;51.052;6.982;2023-11-19T07:52:39;16.30;99.90
16243;DHT22;11719;51.052;6.982;2023-11-19T07:55:05;16.20;99.90
16243;DHT22;11719;51.052;6.982;2023-11-19T07:57:31;16.10;99.90
16243;DHT22;11719;51.052;6.982;2023-11-19T07:59:57;16.10;99.90
16243;DHT22;11719;51.052;6.982;2023-11-19T08:02:23;16.00;99.90
16243;DHT22;11719;51.052;6.982;2023-11-19T08:04:50;16.10;99.90
16243;DHT22;11719;51.052;6.982;2023-11-19T08:07:18;16.20;99.90
16243;DHT22;11719;51.052;6.982;2023-11-19T08:09:45;16.30;99.90
16243;DHT22;11719;51.052;6.982;2023-11-19T08:12:10;16.20;99.90
16243;DHT22;11719;51.052;6.982;2023-11-19T08:14:36;16.20;99.90
16243;DHT22;11719;51.052;6.982;2023-11-19T08:17:03;16.20;99.90
16243;DHT22;11719;51.052;6.982;2023-11-19T08:19:29;16.10;99.90
16243;DHT22;11719;51.052;6.982;2023-11-19T08:21:55;16.20;99.90
16243;DHT22;11719;51.052;6.982;2023-11-19T08:24:21;16.20;99.90
16243;DHT22;11719;51.052;6.982;2023-11-19T08:26:47;16.30;99.90
16243;DHT22;11719;51.052;6.982;2023-11-19T08:29:13;16.40;99.90
16243;DHT22;11719;51.052;6.982;2023-11-19T08:31:39;16.40;99.90
16243;DHT22;11719;51.052;6.982;2023-11-19T08:34:05;16.40;99.90
16243;DHT22;11719;51.052;6.982;2023-11-19T08:36:34;16.40;99.90
16243;DHT22;11719;51.052;6.982;2023-11-19T08:39:00;16.30;99.90
16243;DHT22;11719;51.052;6.982;2023-11-19T08:41:26;16.20;99.90
16243;DHT22;11719;51.052;6.982;2023-11-19T08:43:52;16.30;99.90
16243;DHT22;11719;51.052;6.982;2023-11-19T08:46:18;16.30;99.90
16243;DHT22;11719;51.052;6.982;2023-11-19T08:48:44;16.20;99.90
16243;DHT22;11719;51.052;6.982;2023-11-19T08:51:12;16.30;99.90
16243;DHT22;11719;51.052;6.982;2023-11-19T08:53:38;16.40;99.90
16243;DHT22;11719;51.052;6.982;2023-11-19T08:56:04;16.50;99.90
16243;DHT22;11719;51.052;6.982;2023-11-19T08:58:30;16.40;99.90
16243;DHT22;11719;51.052;6.982;2023-11-19T09:00:57;16.40;99.90
16243;DHT22;11719;51.052;6.982;2023-11-19T09:03:23;16.40;99.90
16243;DHT22;11719;51.052;6.982;2023-11-19T09:05:51;16.30;99.90
16243;DHT22;11719;51.052;6.982;2023-11-19T09:08:17;16.40;99.90
16243;DHT22;11719;51.052;6.982;2023-11-19T09:10:43;16.40;99.90
16243;DHT22;11719;51.052;6.982;2023-11-19T09:13:09;16.40;99.90
16243;DHT22;11719;51.052;6.982;2023-11-19T09:15:34;16.40;99.90
16243;DHT22;11719;51.052;6.982;2023-11-19T09:18:00;16.40;99.90
16243;DHT22;11719;51.052;6.982;2023-11-19T09:20:26;16.40;99.90
16243;DHT22;11719;51.052;6.982;2023-11-19T09:22:51;16.40;99.90
16243;DHT22;11719;51.052;6.982;2023-11-19T09:25:17;16.50;99.90
16243;DHT22;11719;51.052;6.982;2023-11-19T09:27:44;16.50;99.90
16243;DHT22;11719;51.052;6.982;2023-11-19T09:30:10;16.60;99.90
16243;DHT22;11719;51.052;6.982;2023-11-19T09:32:36;16.60;99.90
16243;DHT22;11719;51.052;6.982;2023-11-19T09:35:03;16.60;99.90
16243;DHT22;11719;51.052;6.982;2023-11-19T09:37:30;16.60;99.90
16243;DHT22;11719;51.052;6.982;2023-11-19T09:39:55;16.50;99.90
16243;DHT22;11719;51.052;6.982;2023-11-19T09:42:23;16.60;99.90
16243;DHT22;11719;51.052;6.982;2023-11-19T09:44:49;16.50;99.90
16243;DHT22;11719;51.052;6.982;2023-11-19T09:47:17;16.40;99.90
16243;DHT22;11719;51.052;6.982;2023-11-19T09:49:44;16.30;99.90
16243;DHT22;11719;51.052;6.982;2023-11-19T09:52:10;16.30;99.90
16243;DHT22;11719;51.052;6.982;2023-11-19T09:54:36;16.40;99.90
16243;DHT22;11719;51.052;6.982;2023-11-19T09:57:02;16.40;99.90
16243;DHT22;11719;51.052;6.982;2023-11-19T09:59:30;16.60;99.90
16243;DHT22;11719;51.052;6.982;2023-11-19T10:01:57;16.60;99.90
16243;DHT22;11719;51.052;6.982;2023-11-19T10:04:23;16.60;99.90
16243;DHT22;11719;51.052;6.982;2023-11-19T10:06:51;16.60;99.90
16243;DHT22;11719;51.052;6.982;2023-11-19T10:09:17;16.60;99.90
16243;DHT22;11719;51.052;6.982;2023-11-19T10:11:44;16.70;99.90
16243;DHT22;11719;51.052;6.982;2023-11-19T10:14:10;16.70;99.90
16243;DHT22;11719;51.052;6.982;2023-11-19T10:16:36;16.60;99.90
16243;DHT22;11719;51.052;6.982;2023-11-19T10:19:03;16.60;99.90
16243;DHT22;11719;51.052;6.982;2023-11-19T10:21:32;16.60;99.90
16243;DHT22;11719;51.052;6.982;2023-11-19T10:23:59;16.70;99.90
16243;DHT22;11719;51.052;6.982;2023-11-19T10:26:26;16.80;99.90
16243;DHT22;11719;51.052;6.982;2023-11-19T10:28:52;16.80;99.90
16243;DHT22;11719;51.052;6.982;2023-11-19T10:31:20;16.90;99.90
16243;DHT22;11719;51.052;6.982;2023-11-19T10:33:50;16.80;99.90
16243;DHT22;11719;51.052;6.982;2023-11-19T10:36:17;16.60;99.90
16243;DHT22;11719;51.052;6.982;2023-11-19T10:38:53;16.60;99.90
16243;DHT22;11719;51.052;6.982;2023-11-19T10:41:32;16.60;99.90
16243;DHT22;11719;51.052;6.982;2023-11-19T10:43:59;16.70;99.90
16243;DHT22;11719;51.052;6.982;2023-11-19T10:46:39;16.70;99.90
16243;DHT22;11719;51.052;6.982;2023-11-19T10:49:07;16.80;99.90
16243;DHT22;11719;51.052;6.982;2023-11-19T10:51:34;16.90;99.90
16243;DHT22;11719;51.052;6.982;2023-11-19T10:54:03;16.80;99.90
16243;DHT22;11719;51.052;6.982;2023-11-19T10:56:34;16.90;99.90
16243;DHT22;11719;51.052;6.982;2023-11-19T10:59:00;16.90;99.90
16243;DHT22;11719;51.052;6.982;2023-11-19T11:01:39;16.80;99.90
16243;DHT22;11719;51.052;6.982;2023-11-19T11:04:13;16.80;99.90
16243;DHT22;11719;51.052;6.982;2023-11-19T11:06:40;16.80;99.90
16243;DHT22;11719;51.052;6.982;2023-11-19T11:09:07;16.80;99.90
16243;DHT22;11719;51.052;6.982;2023-11-19T11:11:39;16.80;99.90
16243;DHT22;11719;51.052;6.982;2023-11-19T11:14:06;16.80;99.90
16243;DHT22;11719;51.052;6.982;2023-11-19T11:16:34;16.70;99.90
16243;DHT22;11719;51.052;6.982;2023-11-19T11:19:03;16.70;99.90
16243;DHT22;11719;51.052;6.982;2023-11-19T11:21:30;16.70;99.90
16243;DHT22;11719;51.052;6.982;2023-11-19T11:26:53;16.50;99.90
16243;DHT22;11719;51.052;6.982;2023-11-19T11:32:17;16.20;99.90
16243;DHT22;11719;51.052;6.982;2023-11-19T11:34:53;16.30;99.90
16243;DHT22;11719;51.052;6.982;2023-11-19T11:37:33;16.30;99.90
16243;DHT22;11719;51.052;6.982;2023-11-19T11:40:01;16.50;99.90
16243;DHT22;11719;51.052;6.982;2023-11-19T11:42:38;16.50;99.90
16243;DHT22;11719;51.052;6.982;2023-11-19T11:45:11;16.60;99.90
16243;DHT22;11719;51.052;6.982;2023-11-19T11:50:14;16.50;99.90
16243;DHT22;11719;51.052;6.982;2023-11-19T11:55:29;16.50;99.90
16243;DHT22;11719;51.052;6.982;2023-11-19T11:58:00;16.40;99.90
16243;DHT22;11719;51.052;6.982;2023-11-19T12:00:29;16.30;99.90
16243;DHT22;11719;51.052;6.982;2023-11-19T12:02:57;16.40;99.90
16243;DHT22;11719;51.052;6.982;2023-11-19T12:05:25;16.50;99.90
16243;DHT22;11719;51.052;6.982;2023-11-19T12:08:01;16.50;99.90
16243;DHT22;11719;51.052;6.982;2023-11-19T12:10:38;16.50;99.90
16243;DHT22;11719;51.052;6.982;2023-11-19T12:13:16;16.60;99.90
16243;DHT22;11719;51.052;6.982;2023-11-19T12:18:26;16.60;99.90
16243;DHT22;11719;51.052;6.982;2023-11-19T12:20:56;16.50;99.90
16243;DHT22;11719;51.052;6.982;2023-11-19T12:23:23;16.50;99.90
16243;DHT22;11719;51.052;6.982;2023-11-19T12:25:49;16.60;99.90
16243;DHT22;11719;51.052;6.982;2023-11-19T12:28:16;16.60;99.90
16243;DHT22;11719;51.052;6.982;2023-11-19T12:30:43;16.60;99.90
16243;DHT22;11719;51.052;6.982;2023-11-19T12:33:12;16.60;99.90
16243;DHT22;11719;51.052;6.982;2023-11-19T12:35:42;16.60;99.90
16243;DHT22;11719;51.052;6.982;2023-11-19T12:38:27;16.70;99.90
16243;DHT22;11719;51.052;6.982;2023-11-19T12:41:05;16.70;99.90
16243;DHT22;11719;51.052;6.982;2023-11-19T12:43:32;16.70;99.90
16243;DHT22;11719;51.052;6.982;2023-11-19T12:46:16;16.60;99.90
16243;DHT22;11719;51.052;6.982;2023-11-19T12:48:49;16.50;99.90
16243;DHT22;11719;51.052;6.982;2023-11-19T12:51:16;16.40;99.90
16243;DHT22;11719;51.052;6.982;2023-11-19T12:53:50;16.40;99.90
16243;DHT22;11719;51.052;6.982;2023-11-19T12:56:20;16.40;99.90
16243;DHT22;11719;51.052;6.982;2023-11-19T12:58:47;16.50;99.90
16243;DHT22;11719;51.052;6.982;2023-11-19T13:01:19;16.40;99.90
16243;DHT22;11719;51.052;6.982;2023-11-19T13:03:47;16.60;99.90
16243;DHT22;11719;51.052;6.982;2023-11-19T13:06:15;16.60;99.90
16243;DHT22;11719;51.052;6.982;2023-11-19T13:08:43;16.50;99.90
16243;DHT22;11719;51.052;6.982;2023-11-19T13:11:10;16.60;99.90
16243;DHT22;11719;51.052;6.982;2023-11-19T13:13:57;16.60;99.90
16243;DHT22;11719;51.052;6.982;2023-11-19T13:16:37;16.50;99.90
16243;DHT22;11719;51.052;6.982;2023-11-19T13:19:08;16.50;99.90
16243;DHT22;11719;51.052;6.982;2023-11-19T13:21:36;16.50;99.90
16243;DHT22;11719;51.052;6.982;2023-11-19T13:24:08;16.50;99.90
16243;DHT22;11719;51.052;6.982;2023-11-19T13:26:34;16.50;99.90
16243;DHT22;11719;51.052;6.982;2023-11-19T13:29:00;16.60;99.90
16243;DHT22;11719;51.052;6.982;2023-11-19T13:31:26;16.60;99.90
16243;DHT22;11719;51.052;6.982;2023-11-19T13:33:52;16.70;99.90
16243;DHT22;11719;51.052;6.982;2023-11-19T13:36:18;16.60;99.90
16243;DHT22;11719;51.052;6.982;2023-11-19T13:38:45;16.60;99.90
16243;DHT22;11719;51.052;6.982;2023-11-19T13:41:10;16.60;99.90
16243;DHT22;11719;51.052;6.982;2023-11-19T13:43:37;16.60;99.90
16243;DHT22;11719;51.052;6.982;2023-11-19T13:46:03;16.70;99.90
16243;DHT22;11719;51.052;6.982;2023-11-19T13:48:29;16.70;99.90
16243;DHT22;11719;51.052;6.982;2023-11-19T13:50:56;16.50;99.90
16243;DHT22;11719;51.052;6.982;2023-11-19T13:53:22;16.50;99.90
16243;DHT22;11719;51.052;6.982;2023-11-19T13:55:49;16.50;99.90
16243;DHT22;11719;51.052;6.982;2023-11-19T13:58:15;16.60;99.90
16243;DHT22;11719;51.052;6.982;2023-11-19T14:00:41;16.70;99.90
16243;DHT22;11719;51.052;6.982;2023-11-19T14:03:09;16.70;99.90
16243;DHT22;11719;51.052;6.982;2023-11-19T14:05:38;16.70;99.90
16243;DHT22;11719;51.052;6.982;2023-11-19T14:08:06;16.70;99.90
16243;DHT22;11719;51.052;6.982;2023-11-19T14:10:39;16.70;99.90
16243;DHT22;11719;51.052;6.982;2023-11-19T14:13:06;16.70;99.90
16243;DHT22;11719;51.052;6.982;2023-11-19T14:15:33;16.70;99.90
16243;DHT22;11719;51.052;6.982;2023-11-19T14:18:00;16.70;99.90
16243;DHT22;11719;51.052;6.982;2023-11-19T14:20:25;16.70;99.90
16243;DHT22;11719;51.052;6.982;2023-11-19T14:22:52;16.70;99.90
16243;DHT22;11719;51.052;6.982;2023-11-19T14:25:18;16.70;99.90
16243;DHT22;11719;51.052;6.982;2023-11-19T14:27:45;16.70;99.90
16243;DHT22;11719;51.052;6.982;2023-11-19T14:30:12;16.80;99.90
16243;DHT22;11719;51.052;6.982;2023-11-19T14:32:40;16.90;99.90
16243;DHT22;11719;51.052;6.982;2023-11-19T14:35:08;16.90;99.90
16243;DHT22;11719;51.052;6.982;2023-11-19T14:37:34;16.90;99.90
16243;DHT22;11719;51.052;6.982;2023-11-19T14:40:00;16.80;99.90
16243;DHT22;11719;51.052;6.982;2023-11-19T14:42:27;16.80;99.90
16243;DHT22;11719;51.052;6.982;2023-11-19T14:44:54;16.80;99.90
16243;DHT22;11719;51.052;6.982;2023-11-19T14:47:21;16.70;99.90
16243;DHT22;11719;51.052;6.982;2023-11-19T14:49:47;16.60;99.90
16243;DHT22;11719;51.052;6.982;2023-11-19T14:52:14;16.60;99.90
16243;DHT22;11719;51.052;6.982;2023-11-19T14:54:39;16.60;99.90
16243;DHT22;11719;51.052;6.982;2023-11-19T14:57:06;16.60;99.90
16243;DHT22;11719;51.052;6.982;2023-11-19T14:59:34;16.60;99.90
16243;DHT22;11719;51.052;6.982;2023-11-19T15:02:01;16.60;99.90
16243;DHT22;11719;51.052;6.982;2023-11-19T15:04:27;16.60;99.90
16243;DHT22;11719;51.052;6.982;2023-11-19T15:06:53;16.60;99.90
16243;DHT22;11719;51.052;6.982;2023-11-19T15:09:19;16.60;99.90
16243;DHT22;11719;51.052;6.982;2023-11-19T15:11:46;16.70;99.90
16243;DHT22;11719;51.052;6.982;2023-11-19T15:14:13;16.70;99.90
16243;DHT22;11719;51.052;6.982;2023-11-19T15:16:44;16.70;99.90
16243;DHT22;11719;51.052;6.982;2023-11-19T15:19:11;16.60;99.90
16243;DHT22;11719;51.052;6.982;2023-11-19T15:21:41;16.50;99.90
16243;DHT22;11719;51.052;6.982;2023-11-19T15:24:08;16.60;99.90
16243;DHT22;11719;51.052;6.982;2023-11-19T15:26:35;16.50;99.90
16243;DHT22;11719;51.052;6.982;2023-11-19T15:29:04;16.60;99.90
16243;DHT22;11719;51.052;6.982;2023-11-19T15:31:30;16.60;99.90
16243;DHT22;11719;51.052;6.982;2023-11-19T15:33:57;16.60;99.90
16243;DHT22;11719;51.052;6.982;2023-11-19T15:36:23;16.40;99.90
16243;DHT22;11719;51.052;6.982;2023-11-19T15:38:49;16.40;99.90
16243;DHT22;11719;51.052;6.982;2023-11-19T15:41:15;16.60;99.90
16243;DHT22;11719;51.052;6.982;2023-11-19T15:43:42;16.50;99.90
16243;DHT22;11719;51.052;6.982;2023-11-19T15:46:08;16.50;99.90